sensor_id;sensor_type;location;lat;lon;timestamp;pressure;altitude;pressure_sealevel;temperature;humidity
70833;BME280;58452;59.418;17.962;2022-10-19T00:03:30;101825.50;;;4.43;75.05
70833;BME280;58452;59.418;17.962;2022-10-19T00:05:55;101834.69;;;4.47;75.56
70833;BME280;58452;59.418;17.962;2022-10-19T00:08:21;101844.28;;;4.42;74.41
70833;BME280;58452;59.418;17.962;2022-10-19T00:10:46;101847.06;;;4.37;75.10
70833;BME280;58452;59.418;17.962;2022-10-19T00:13:12;101850.44;;;4.38;74.98
70833;BME280;58452;59.418;17.962;2022-10-19T00:15:38;101846.16;;;4.38;74.47
70833;BME280;58452;59.418;17.962;2022-10-19T00:18:04;101859.78;;;4.39;74.54
70833;BME280;58452;59.418;17.962;2022-10-19T00:20:30;101855.72;;;4.35;75.62
70833;BME280;58452;59.418;17.962;2022-10-19T00:22:55;101867.97;;;4.28;74.24
70833;BME280;58452;59.418;17.962;2022-10-19T00:25:21;101862.31;;;4.22;74.59
70833;BME280;58452;59.418;17.962;2022-10-19T00:27:46;101866.25;;;4.29;74.25
70833;BME280;58452;59.418;17.962;2022-10-19T00:30:12;101875.25;;;4.36;74.81
70833;BME280;58452;59.418;17.962;2022-10-19T00:32:38;101870.69;;;4.42;73.83
70833;BME280;58452;59.418;17.962;2022-10-19T00:35:04;101875.69;;;4.44;73.72
70833;BME280;58452;59.418;17.962;2022-10-19T00:37:29;101875.13;;;4.39;72.69
70833;BME280;58452;59.418;17.962;2022-10-19T00:39:54;101868.19;;;4.41;73.30
70833;BME280;58452;59.418;17.962;2022-10-19T00:42:20;101877.34;;;4.45;72.78
70833;BME280;58452;59.418;17.962;2022-10-19T00:47:11;101886.16;;;4.39;73.45
70833;BME280;58452;59.418;17.962;2022-10-19T00:49:39;101882.16;;;4.34;72.74
70833;BME280;58452;59.418;17.962;2022-10-19T00:52:14;101885.31;;;4.22;73.43
70833;BME280;58452;59.418;17.962;2022-10-19T00:54:43;101896.84;;;4.12;74.33
70833;BME280;58452;59.418;17.962;2022-10-19T00:57:10;101893.94;;;4.19;73.75
70833;BME280;58452;59.418;17.962;2022-10-19T00:59:37;101897.50;;;4.34;73.81
70833;BME280;58452;59.418;17.962;2022-10-19T01:02:04;101888.94;;;4.35;73.09
70833;BME280;58452;59.418;17.962;2022-10-19T01:04:33;101896.97;;;4.27;72.87
70833;BME280;58452;59.418;17.962;2022-10-19T01:07:01;101904.94;;;4.21;73.77
70833;BME280;58452;59.418;17.962;2022-10-19T01:09:27;101901.53;;;4.21;73.43
70833;BME280;58452;59.418;17.962;2022-10-19T01:31:48;101922.75;;;3.85;74.13
70833;BME280;58452;59.418;17.962;2022-10-19T01:34:25;101923.69;;;3.84;74.42
70833;BME280;58452;59.418;17.962;2022-10-19T01:42:14;101923.69;;;3.84;74.08
70833;BME280;58452;59.418;17.962;2022-10-19T01:45:10;101922.84;;;3.65;74.57
70833;BME280;58452;59.418;17.962;2022-10-19T01:50:11;101918.84;;;3.78;74.74
70833;BME280;58452;59.418;17.962;2022-10-19T01:52:39;101930.03;;;3.76;75.28
70833;BME280;58452;59.418;17.962;2022-10-19T01:55:07;101932.28;;;3.63;75.17
70833;BME280;58452;59.418;17.962;2022-10-19T01:57:39;101942.75;;;3.57;75.06
70833;BME280;58452;59.418;17.962;2022-10-19T02:00:09;101940.34;;;3.54;74.89
70833;BME280;58452;59.418;17.962;2022-10-19T02:02:36;101941.03;;;3.58;75.11
70833;BME280;58452;59.418;17.962;2022-10-19T02:05:04;101938.31;;;3.62;74.84
70833;BME280;58452;59.418;17.962;2022-10-19T02:07:32;101946.56;;;3.67;74.94
70833;BME280;58452;59.418;17.962;2022-10-19T02:09:58;101948.50;;;3.62;74.99
70833;BME280;58452;59.418;17.962;2022-10-19T02:12:24;101948.66;;;3.59;75.00
70833;BME280;58452;59.418;17.962;2022-10-19T02:14:55;101936.78;;;3.58;75.47
70833;BME280;58452;59.418;17.962;2022-10-19T02:17:29;101943.19;;;3.48;75.65
70833;BME280;58452;59.418;17.962;2022-10-19T02:19:56;101948.84;;;3.34;76.19
70833;BME280;58452;59.418;17.962;2022-10-19T02:22:23;101954.78;;;3.35;76.12
70833;BME280;58452;59.418;17.962;2022-10-19T02:24:48;101957.16;;;3.39;76.23
70833;BME280;58452;59.418;17.962;2022-10-19T02:27:14;101968.56;;;3.31;76.19
70833;BME280;58452;59.418;17.962;2022-10-19T02:29:40;101962.78;;;3.27;76.63
70833;BME280;58452;59.418;17.962;2022-10-19T02:32:08;101962.25;;;3.19;77.11
70833;BME280;58452;59.418;17.962;2022-10-19T02:34:34;101965.41;;;3.26;77.15
70833;BME280;58452;59.418;17.962;2022-10-19T02:37:00;101962.84;;;3.26;76.57
70833;BME280;58452;59.418;17.962;2022-10-19T02:39:26;101966.47;;;3.20;77.03
70833;BME280;58452;59.418;17.962;2022-10-19T02:42:08;101966.75;;;3.14;77.60
70833;BME280;58452;59.418;17.962;2022-10-19T02:45:00;101973.38;;;3.18;77.51
70833;BME280;58452;59.418;17.962;2022-10-19T02:47:24;101968.31;;;3.17;77.22
70833;BME280;58452;59.418;17.962;2022-10-19T02:49:51;101968.00;;;3.24;77.26
70833;BME280;58452;59.418;17.962;2022-10-19T02:52:18;101966.28;;;3.05;77.04
70833;BME280;58452;59.418;17.962;2022-10-19T02:54:44;101976.25;;;3.11;77.75
70833;BME280;58452;59.418;17.962;2022-10-19T02:57:18;101981.09;;;3.17;77.17
70833;BME280;58452;59.418;17.962;2022-10-19T02:59:44;101980.59;;;3.29;76.83
70833;BME280;58452;59.418;17.962;2022-10-19T03:02:10;101980.59;;;3.29;76.18
70833;BME280;58452;59.418;17.962;2022-10-19T03:04:36;101978.41;;;3.20;77.13
70833;BME280;58452;59.418;17.962;2022-10-19T03:07:01;101985.94;;;3.23;76.72
70833;BME280;58452;59.418;17.962;2022-10-19T03:09:27;101983.88;;;3.31;76.84
70833;BME280;58452;59.418;17.962;2022-10-19T03:11:54;101983.59;;;3.18;76.60
70833;BME280;58452;59.418;17.962;2022-10-19T03:14:20;101975.84;;;3.20;77.25
70833;BME280;58452;59.418;17.962;2022-10-19T03:16:45;101989.75;;;3.33;76.63
70833;BME280;58452;59.418;17.962;2022-10-19T03:19:10;101977.78;;;3.15;77.37
70833;BME280;58452;59.418;17.962;2022-10-19T03:21:36;101985.75;;;3.07;76.85
70833;BME280;58452;59.418;17.962;2022-10-19T03:24:01;101990.59;;;3.13;77.55
70833;BME280;58452;59.418;17.962;2022-10-19T03:26:27;101996.66;;;3.11;77.39
70833;BME280;58452;59.418;17.962;2022-10-19T03:28:52;101985.31;;;3.18;76.73
70833;BME280;58452;59.418;17.962;2022-10-19T03:31:18;101990.31;;;3.19;76.30
70833;BME280;58452;59.418;17.962;2022-10-19T03:33:44;101991.84;;;3.23;76.68
70833;BME280;58452;59.418;17.962;2022-10-19T03:38:37;101993.09;;;3.15;77.11
70833;BME280;58452;59.418;17.962;2022-10-19T03:41:06;101995.81;;;3.10;77.89
70833;BME280;58452;59.418;17.962;2022-10-19T03:43:32;101999.25;;;3.09;77.83
70833;BME280;58452;59.418;17.962;2022-10-19T03:45:57;102006.72;;;3.14;76.75
70833;BME280;58452;59.418;17.962;2022-10-19T03:48:23;102013.34;;;3.18;77.42
70833;BME280;58452;59.418;17.962;2022-10-19T03:50:57;102010.84;;;3.16;77.26
70833;BME280;58452;59.418;17.962;2022-10-19T03:53:23;102008.88;;;3.03;78.05
70833;BME280;58452;59.418;17.962;2022-10-19T03:55:48;102010.28;;;3.10;77.95
70833;BME280;58452;59.418;17.962;2022-10-19T03:58:13;102014.81;;;3.03;77.46
70833;BME280;58452;59.418;17.962;2022-10-19T04:00:39;102011.16;;;2.88;78.16
70833;BME280;58452;59.418;17.962;2022-10-19T04:03:04;102009.44;;;2.89;78.11
70833;BME280;58452;59.418;17.962;2022-10-19T04:05:29;102016.25;;;2.88;78.28
70833;BME280;58452;59.418;17.962;2022-10-19T04:07:55;102014.59;;;2.87;78.39
70833;BME280;58452;59.418;17.962;2022-10-19T04:10:20;102025.75;;;2.85;78.52
70833;BME280;58452;59.418;17.962;2022-10-19T04:12:45;102007.72;;;2.89;78.08
70833;BME280;58452;59.418;17.962;2022-10-19T04:15:11;102010.19;;;2.91;78.53
70833;BME280;58452;59.418;17.962;2022-10-19T04:17:36;102009.50;;;2.87;78.23
70833;BME280;58452;59.418;17.962;2022-10-19T04:20:02;102007.03;;;2.86;78.43
70833;BME280;58452;59.418;17.962;2022-10-19T04:22:27;102012.69;;;2.92;77.72
70833;BME280;58452;59.418;17.962;2022-10-19T04:24:52;102025.91;;;3.02;78.02
70833;BME280;58452;59.418;17.962;2022-10-19T04:27:18;102027.63;;;3.02;77.42
70833;BME280;58452;59.418;17.962;2022-10-19T04:29:43;102034.03;;;3.12;77.93
70833;BME280;58452;59.418;17.962;2022-10-19T04:32:08;102034.38;;;3.03;78.01
70833;BME280;58452;59.418;17.962;2022-10-19T04:34:34;102028.63;;;2.97;77.94
70833;BME280;58452;59.418;17.962;2022-10-19T04:36:59;102039.19;;;3.10;78.19
70833;BME280;58452;59.418;17.962;2022-10-19T04:39:25;102042.88;;;3.03;77.30
70833;BME280;58452;59.418;17.962;2022-10-19T04:41:50;102041.78;;;3.09;76.97
70833;BME280;58452;59.418;17.962;2022-10-19T04:44:16;102043.75;;;3.02;78.11
70833;BME280;58452;59.418;17.962;2022-10-19T04:46:41;102054.31;;;2.93;78.06
70833;BME280;58452;59.418;17.962;2022-10-19T04:49:07;102053.63;;;2.89;77.86
70833;BME280;58452;59.418;17.962;2022-10-19T04:51:33;102050.66;;;2.78;78.53
70833;BME280;58452;59.418;17.962;2022-10-19T04:53:58;102057.88;;;2.67;79.11
70833;BME280;58452;59.418;17.962;2022-10-19T04:56:24;102056.88;;;2.71;79.34
70833;BME280;58452;59.418;17.962;2022-10-19T04:58:53;102056.81;;;2.73;79.04
70833;BME280;58452;59.418;17.962;2022-10-19T05:01:20;102063.16;;;2.63;79.76
70833;BME280;58452;59.418;17.962;2022-10-19T05:03:46;102068.28;;;2.61;79.80
70833;BME280;58452;59.418;17.962;2022-10-19T05:06:13;102066.88;;;2.54;79.77
70833;BME280;58452;59.418;17.962;2022-10-19T05:08:39;102082.41;;;2.48;79.64
70833;BME280;58452;59.418;17.962;2022-10-19T05:11:10;102087.03;;;2.60;79.43
70833;BME280;58452;59.418;17.962;2022-10-19T05:13:36;102074.81;;;2.68;79.14
70833;BME280;58452;59.418;17.962;2022-10-19T05:16:04;102087.41;;;2.73;79.03
70833;BME280;58452;59.418;17.962;2022-10-19T05:18:30;102079.59;;;2.77;79.29
70833;BME280;58452;59.418;17.962;2022-10-19T05:21:14;102075.72;;;2.67;78.92
70833;BME280;58452;59.418;17.962;2022-10-19T05:23:40;102089.91;;;2.74;78.64
70833;BME280;58452;59.418;17.962;2022-10-19T05:26:15;102081.47;;;2.72;78.65
70833;BME280;58452;59.418;17.962;2022-10-19T05:28:47;102092.19;;;2.80;78.23
70833;BME280;58452;59.418;17.962;2022-10-19T05:31:19;102093.00;;;2.82;78.09
70833;BME280;58452;59.418;17.962;2022-10-19T05:33:45;102087.66;;;2.88;77.64
70833;BME280;58452;59.418;17.962;2022-10-19T05:36:11;102093.34;;;2.95;78.19
70833;BME280;58452;59.418;17.962;2022-10-19T05:38:37;102090.13;;;2.68;78.43
70833;BME280;58452;59.418;17.962;2022-10-19T05:41:02;102083.59;;;2.61;78.73
70833;BME280;58452;59.418;17.962;2022-10-19T05:43:28;102096.88;;;2.69;78.46
70833;BME280;58452;59.418;17.962;2022-10-19T05:45:53;102093.38;;;2.72;78.90
70833;BME280;58452;59.418;17.962;2022-10-19T05:48:18;102098.66;;;2.67;78.66
70833;BME280;58452;59.418;17.962;2022-10-19T05:50:53;102095.72;;;2.78;78.59
70833;BME280;58452;59.418;17.962;2022-10-19T05:53:19;102095.31;;;2.65;79.02
70833;BME280;58452;59.418;17.962;2022-10-19T05:55:44;102094.31;;;2.69;78.87
70833;BME280;58452;59.418;17.962;2022-10-19T05:58:10;102112.06;;;2.72;78.89
70833;BME280;58452;59.418;17.962;2022-10-19T06:00:35;102102.66;;;2.74;79.15
70833;BME280;58452;59.418;17.962;2022-10-19T06:03:00;102100.69;;;2.81;78.46
70833;BME280;58452;59.418;17.962;2022-10-19T06:05:26;102105.19;;;2.74;78.29
70833;BME280;58452;59.418;17.962;2022-10-19T06:07:51;102104.25;;;2.77;79.14
70833;BME280;58452;59.418;17.962;2022-10-19T06:10:17;102113.00;;;2.70;79.41
70833;BME280;58452;59.418;17.962;2022-10-19T06:12:43;102109.91;;;2.62;79.49
70833;BME280;58452;59.418;17.962;2022-10-19T06:15:08;102115.72;;;2.65;79.34
70833;BME280;58452;59.418;17.962;2022-10-19T06:17:34;102118.38;;;2.62;79.51
70833;BME280;58452;59.418;17.962;2022-10-19T06:19:59;102118.44;;;2.61;80.00
70833;BME280;58452;59.418;17.962;2022-10-19T06:22:25;102116.94;;;2.55;79.54
70833;BME280;58452;59.418;17.962;2022-10-19T06:24:50;102117.38;;;2.66;79.64
70833;BME280;58452;59.418;17.962;2022-10-19T06:27:15;102120.94;;;2.62;79.81
70833;BME280;58452;59.418;17.962;2022-10-19T06:29:41;102125.56;;;2.53;79.75
70833;BME280;58452;59.418;17.962;2022-10-19T06:32:06;102125.03;;;2.66;79.53
70833;BME280;58452;59.418;17.962;2022-10-19T06:34:31;102123.47;;;2.62;79.62
70833;BME280;58452;59.418;17.962;2022-10-19T06:36:57;102132.13;;;2.81;79.51
70833;BME280;58452;59.418;17.962;2022-10-19T06:39:22;102127.94;;;2.79;78.75
70833;BME280;58452;59.418;17.962;2022-10-19T06:41:47;102124.34;;;2.84;79.23
70833;BME280;58452;59.418;17.962;2022-10-19T06:44:13;102141.31;;;2.85;79.11
70833;BME280;58452;59.418;17.962;2022-10-19T06:46:38;102143.75;;;2.88;78.94
70833;BME280;58452;59.418;17.962;2022-10-19T06:49:04;102132.00;;;2.84;79.23
70833;BME280;58452;59.418;17.962;2022-10-19T06:51:30;102140.06;;;2.95;79.09
70833;BME280;58452;59.418;17.962;2022-10-19T06:53:56;102158.59;;;3.01;78.73
70833;BME280;58452;59.418;17.962;2022-10-19T06:56:22;102149.19;;;3.01;79.05
70833;BME280;58452;59.418;17.962;2022-10-19T06:58:48;102151.44;;;3.09;78.88
70833;BME280;58452;59.418;17.962;2022-10-19T07:01:14;102154.91;;;3.08;78.49
70833;BME280;58452;59.418;17.962;2022-10-19T07:03:40;102156.75;;;3.26;77.91
70833;BME280;58452;59.418;17.962;2022-10-19T07:06:08;102158.91;;;3.35;77.59
70833;BME280;58452;59.418;17.962;2022-10-19T07:08:36;102151.66;;;3.46;77.53
70833;BME280;58452;59.418;17.962;2022-10-19T07:11:04;102163.41;;;3.50;77.36
70833;BME280;58452;59.418;17.962;2022-10-19T07:13:30;102158.84;;;3.58;76.81
70833;BME280;58452;59.418;17.962;2022-10-19T07:16:07;102158.44;;;3.47;76.75
70833;BME280;58452;59.418;17.962;2022-10-19T07:18:34;102165.09;;;3.51;77.23
70833;BME280;58452;59.418;17.962;2022-10-19T07:21:02;102167.50;;;3.54;77.22
70833;BME280;58452;59.418;17.962;2022-10-19T07:23:31;102175.16;;;3.54;76.95
70833;BME280;58452;59.418;17.962;2022-10-19T07:25:57;102170.34;;;3.68;77.34
70833;BME280;58452;59.418;17.962;2022-10-19T07:28:27;102184.63;;;3.72;76.62
70833;BME280;58452;59.418;17.962;2022-10-19T07:30:54;102181.59;;;3.84;76.81
70833;BME280;58452;59.418;17.962;2022-10-19T07:33:19;102180.69;;;3.85;75.69
70833;BME280;58452;59.418;17.962;2022-10-19T07:35:45;102182.91;;;3.93;76.09
70833;BME280;58452;59.418;17.962;2022-10-19T07:38:10;102187.91;;;3.96;76.42
70833;BME280;58452;59.418;17.962;2022-10-19T07:40:36;102192.59;;;4.07;75.35
70833;BME280;58452;59.418;17.962;2022-10-19T07:43:02;102196.66;;;4.11;75.81
70833;BME280;58452;59.418;17.962;2022-10-19T07:45:27;102191.78;;;4.05;75.60
70833;BME280;58452;59.418;17.962;2022-10-19T07:47:53;102195.38;;;4.01;75.72
70833;BME280;58452;59.418;17.962;2022-10-19T07:50:19;102201.78;;;4.11;75.91
70833;BME280;58452;59.418;17.962;2022-10-19T07:52:44;102197.47;;;4.11;75.50
70833;BME280;58452;59.418;17.962;2022-10-19T07:55:09;102205.50;;;4.22;75.34
70833;BME280;58452;59.418;17.962;2022-10-19T07:57:35;102205.97;;;4.32;74.65
70833;BME280;58452;59.418;17.962;2022-10-19T08:00:01;102211.09;;;4.32;75.08
70833;BME280;58452;59.418;17.962;2022-10-19T08:02:26;102208.16;;;4.21;74.67
70833;BME280;58452;59.418;17.962;2022-10-19T08:04:51;102208.59;;;4.30;75.10
70833;BME280;58452;59.418;17.962;2022-10-19T08:07:17;102212.72;;;4.33;75.29
70833;BME280;58452;59.418;17.962;2022-10-19T08:09:42;102212.00;;;4.50;74.79
70833;BME280;58452;59.418;17.962;2022-10-19T08:12:08;102206.97;;;4.48;75.01
70833;BME280;58452;59.418;17.962;2022-10-19T08:14:33;102214.00;;;4.43;74.68
70833;BME280;58452;59.418;17.962;2022-10-19T08:16:59;102224.59;;;4.54;73.83
70833;BME280;58452;59.418;17.962;2022-10-19T08:19:25;102218.72;;;4.52;74.74
70833;BME280;58452;59.418;17.962;2022-10-19T08:21:50;102220.44;;;4.52;73.83
70833;BME280;58452;59.418;17.962;2022-10-19T08:24:17;102219.22;;;4.60;74.65
70833;BME280;58452;59.418;17.962;2022-10-19T08:26:43;102223.84;;;4.71;73.81
70833;BME280;58452;59.418;17.962;2022-10-19T08:29:11;102233.69;;;4.80;73.62
70833;BME280;58452;59.418;17.962;2022-10-19T08:31:37;102227.88;;;4.76;74.15
70833;BME280;58452;59.418;17.962;2022-10-19T08:34:03;102235.34;;;4.81;73.59
70833;BME280;58452;59.418;17.962;2022-10-19T08:36:28;102230.03;;;4.85;73.68
70833;BME280;58452;59.418;17.962;2022-10-19T08:39:00;102240.47;;;5.00;73.58
70833;BME280;58452;59.418;17.962;2022-10-19T08:49:44;102222.22;;;5.43;72.17
70833;BME280;58452;59.418;17.962;2022-10-19T08:52:22;102214.97;;;5.53;71.53
70833;BME280;58452;59.418;17.962;2022-10-19T08:54:54;102217.00;;;5.63;71.26
70833;BME280;58452;59.418;17.962;2022-10-19T09:08:02;102225.13;;;5.90;71.03
70833;BME280;58452;59.418;17.962;2022-10-19T09:10:32;102226.69;;;5.93;70.85
70833;BME280;58452;59.418;17.962;2022-10-19T09:13:13;102230.31;;;6.06;70.11
70833;BME280;58452;59.418;17.962;2022-10-19T09:15:43;102229.09;;;6.13;70.03
70833;BME280;58452;59.418;17.962;2022-10-19T09:20:52;102222.00;;;6.18;69.63
70833;BME280;58452;59.418;17.962;2022-10-19T09:23:39;102233.38;;;6.29;69.62
70833;BME280;58452;59.418;17.962;2022-10-19T09:26:18;102232.09;;;6.38;69.70
70833;BME280;58452;59.418;17.962;2022-10-19T09:29:07;102236.69;;;6.49;68.79
70833;BME280;58452;59.418;17.962;2022-10-19T09:31:39;102226.84;;;6.57;69.02
70833;BME280;58452;59.418;17.962;2022-10-19T09:34:17;102230.78;;;6.64;68.82
70833;BME280;58452;59.418;17.962;2022-10-19T09:36:50;102232.94;;;6.71;68.27
70833;BME280;58452;59.418;17.962;2022-10-19T09:39:17;102222.50;;;6.74;67.99
70833;BME280;58452;59.418;17.962;2022-10-19T09:41:46;102229.22;;;6.77;67.78
70833;BME280;58452;59.418;17.962;2022-10-19T09:44:14;102228.03;;;6.82;67.81
70833;BME280;58452;59.418;17.962;2022-10-19T09:49:47;102232.16;;;6.69;68.49
70833;BME280;58452;59.418;17.962;2022-10-19T09:52:39;102232.72;;;6.59;67.81
70833;BME280;58452;59.418;17.962;2022-10-19T09:55:19;102231.56;;;6.64;68.63
70833;BME280;58452;59.418;17.962;2022-10-19T09:57:48;102236.50;;;6.84;68.37
70833;BME280;58452;59.418;17.962;2022-10-19T10:00:22;102237.00;;;6.91;67.00
70833;BME280;58452;59.418;17.962;2022-10-19T10:02:53;102228.81;;;7.00;67.36
70833;BME280;58452;59.418;17.962;2022-10-19T10:05:28;102238.53;;;7.11;66.78
70833;BME280;58452;59.418;17.962;2022-10-19T10:07:55;102236.44;;;7.17;66.10
70833;BME280;58452;59.418;17.962;2022-10-19T10:10:27;102242.88;;;7.09;65.24
70833;BME280;58452;59.418;17.962;2022-10-19T10:12:53;102242.16;;;7.07;67.25
70833;BME280;58452;59.418;17.962;2022-10-19T10:15:27;102243.91;;;7.22;66.54
70833;BME280;58452;59.418;17.962;2022-10-19T10:17:54;102238.84;;;7.36;66.29
70833;BME280;58452;59.418;17.962;2022-10-19T10:20:22;102248.28;;;7.20;65.69
70833;BME280;58452;59.418;17.962;2022-10-19T10:22:54;102233.53;;;7.39;65.97
70833;BME280;58452;59.418;17.962;2022-10-19T10:25:24;102223.31;;;7.53;66.49
70833;BME280;58452;59.418;17.962;2022-10-19T10:27:56;102225.84;;;7.69;64.30
70833;BME280;58452;59.418;17.962;2022-10-19T10:30:22;102219.38;;;7.77;64.98
70833;BME280;58452;59.418;17.962;2022-10-19T10:32:54;102219.41;;;7.92;63.88
70833;BME280;58452;59.418;17.962;2022-10-19T10:35:32;102219.09;;;7.82;63.32
70833;BME280;58452;59.418;17.962;2022-10-19T10:38:13;102219.38;;;7.77;63.25
70833;BME280;58452;59.418;17.962;2022-10-19T10:40:48;102215.88;;;7.78;64.77
70833;BME280;58452;59.418;17.962;2022-10-19T10:43:16;102219.53;;;7.74;64.48
70833;BME280;58452;59.418;17.962;2022-10-19T10:45:46;102208.38;;;7.90;64.10
70833;BME280;58452;59.418;17.962;2022-10-19T10:48:29;102216.31;;;8.01;63.39
70833;BME280;58452;59.418;17.962;2022-10-19T10:50:56;102206.97;;;8.14;63.25
70833;BME280;58452;59.418;17.962;2022-10-19T10:56:03;102223.50;;;8.24;62.37
70833;BME280;58452;59.418;17.962;2022-10-19T11:01:20;102230.06;;;8.29;61.47
70833;BME280;58452;59.418;17.962;2022-10-19T11:03:55;102224.03;;;8.15;63.67
70833;BME280;58452;59.418;17.962;2022-10-19T11:06:24;102217.06;;;8.17;61.77
70833;BME280;58452;59.418;17.962;2022-10-19T11:11:29;102217.28;;;8.28;60.79
70833;BME280;58452;59.418;17.962;2022-10-19T11:14:31;102234.75;;;8.37;61.97
70833;BME280;58452;59.418;17.962;2022-10-19T11:17:05;102233.38;;;8.60;62.10
70833;BME280;58452;59.418;17.962;2022-10-19T11:19:35;102232.19;;;8.79;61.36
70833;BME280;58452;59.418;17.962;2022-10-19T11:22:27;102229.63;;;8.79;59.03
70833;BME280;58452;59.418;17.962;2022-10-19T11:24:58;102233.84;;;8.95;60.31
70833;BME280;58452;59.418;17.962;2022-10-19T11:27:56;102230.97;;;8.99;58.12
70833;BME280;58452;59.418;17.962;2022-10-19T11:30:24;102230.63;;;8.91;59.32
70833;BME280;58452;59.418;17.962;2022-10-19T11:33:15;102237.09;;;9.11;59.84
70833;BME280;58452;59.418;17.962;2022-10-19T11:35:53;102245.19;;;9.19;58.47
70833;BME280;58452;59.418;17.962;2022-10-19T11:41:18;102240.00;;;9.33;59.01
70833;BME280;58452;59.418;17.962;2022-10-19T11:54:47;102234.69;;;9.49;56.53
70833;BME280;58452;59.418;17.962;2022-10-19T11:57:23;102240.34;;;9.41;55.41
70833;BME280;58452;59.418;17.962;2022-10-19T12:00:11;102229.59;;;9.35;56.56
70833;BME280;58452;59.418;17.962;2022-10-19T12:11:09;102226.25;;;9.99;54.45
70833;BME280;58452;59.418;17.962;2022-10-19T12:13:53;102224.56;;;10.37;54.82
70833;BME280;58452;59.418;17.962;2022-10-19T12:16:23;102223.81;;;10.48;54.69
70833;BME280;58452;59.418;17.962;2022-10-19T12:18:54;102225.88;;;10.17;54.19
70833;BME280;58452;59.418;17.962;2022-10-19T12:21:29;102220.84;;;9.64;54.59
70833;BME280;58452;59.418;17.962;2022-10-19T12:24:01;102225.06;;;9.38;55.12
70833;BME280;58452;59.418;17.962;2022-10-19T12:26:30;102229.84;;;9.44;54.62
70833;BME280;58452;59.418;17.962;2022-10-19T12:29:01;102228.38;;;9.40;55.86
70833;BME280;58452;59.418;17.962;2022-10-19T12:31:28;102220.63;;;9.40;54.86
70833;BME280;58452;59.418;17.962;2022-10-19T12:37:17;102230.50;;;8.93;56.10
70833;BME280;58452;59.418;17.962;2022-10-19T12:39:26;102227.00;;;9.08;55.48
70833;BME280;58452;59.418;17.962;2022-10-19T12:47:22;102218.84;;;8.59;56.33
70833;BME280;58452;59.418;17.962;2022-10-19T12:49:53;102222.06;;;8.48;58.09
70833;BME280;58452;59.418;17.962;2022-10-19T12:52:45;102228.16;;;8.61;56.68
70833;BME280;58452;59.418;17.962;2022-10-19T12:58:03;102214.00;;;8.68;56.95
70833;BME280;58452;59.418;17.962;2022-10-19T13:00:33;102224.00;;;8.87;56.49
70833;BME280;58452;59.418;17.962;2022-10-19T13:03:13;102213.09;;;8.69;56.16
70833;BME280;58452;59.418;17.962;2022-10-19T13:05:40;102211.97;;;8.73;57.17
70833;BME280;58452;59.418;17.962;2022-10-19T13:08:06;102216.00;;;8.63;57.14
70833;BME280;58452;59.418;17.962;2022-10-19T13:10:32;102214.91;;;8.67;57.36
70833;BME280;58452;59.418;17.962;2022-10-19T13:12:59;102212.25;;;8.69;57.91
70833;BME280;58452;59.418;17.962;2022-10-19T13:18:13;102213.81;;;8.57;57.22
70833;BME280;58452;59.418;17.962;2022-10-19T13:20:49;102212.72;;;8.75;58.08
70833;BME280;58452;59.418;17.962;2022-10-19T13:25:42;102213.72;;;8.59;57.38
70833;BME280;58452;59.418;17.962;2022-10-19T14:07:12;102210.28;;;8.16;59.54
70833;BME280;58452;59.418;17.962;2022-10-19T14:09:56;102210.72;;;8.22;59.71
70833;BME280;58452;59.418;17.962;2022-10-19T14:12:26;102209.75;;;8.25;59.55
70833;BME280;58452;59.418;17.962;2022-10-19T14:14:53;102204.97;;;8.33;59.39
70833;BME280;58452;59.418;17.962;2022-10-19T14:17:21;102204.41;;;8.28;59.90
70833;BME280;58452;59.418;17.962;2022-10-19T14:19:54;102202.94;;;8.24;59.06
70833;BME280;58452;59.418;17.962;2022-10-19T14:22:34;102203.31;;;8.18;60.07
70833;BME280;58452;59.418;17.962;2022-10-19T14:25:26;102197.97;;;8.21;59.08
70833;BME280;58452;59.418;17.962;2022-10-19T14:28:00;102199.78;;;8.19;59.54
70833;BME280;58452;59.418;17.962;2022-10-19T14:30:28;102195.41;;;8.07;59.29
70833;BME280;58452;59.418;17.962;2022-10-19T14:32:55;102196.50;;;8.03;59.40
70833;BME280;58452;59.418;17.962;2022-10-19T14:35:33;102196.81;;;7.97;59.70
70833;BME280;58452;59.418;17.962;2022-10-19T14:37:59;102194.97;;;7.84;59.99
70833;BME280;58452;59.418;17.962;2022-10-19T14:40:36;102196.72;;;7.84;60.30
70833;BME280;58452;59.418;17.962;2022-10-19T14:43:12;102192.97;;;7.90;60.76
70833;BME280;58452;59.418;17.962;2022-10-19T14:45:42;102195.22;;;7.66;60.76
70833;BME280;58452;59.418;17.962;2022-10-19T14:48:16;102200.00;;;7.56;60.97
70833;BME280;58452;59.418;17.962;2022-10-19T14:50:48;102189.38;;;7.48;61.04
70833;BME280;58452;59.418;17.962;2022-10-19T14:53:25;102187.34;;;7.53;61.50
70833;BME280;58452;59.418;17.962;2022-10-19T14:55:57;102196.38;;;7.60;61.31
70833;BME280;58452;59.418;17.962;2022-10-19T14:58:25;102186.09;;;7.60;61.28
70833;BME280;58452;59.418;17.962;2022-10-19T15:00:51;102194.72;;;7.59;61.57
70833;BME280;58452;59.418;17.962;2022-10-19T15:03:24;102192.22;;;7.58;61.79
70833;BME280;58452;59.418;17.962;2022-10-19T15:05:55;102195.03;;;7.69;61.79
70833;BME280;58452;59.418;17.962;2022-10-19T15:08:37;102189.47;;;7.61;61.51
70833;BME280;58452;59.418;17.962;2022-10-19T15:11:07;102203.16;;;7.61;61.45
70833;BME280;58452;59.418;17.962;2022-10-19T15:13:44;102204.13;;;7.29;62.06
70833;BME280;58452;59.418;17.962;2022-10-19T15:16:33;102202.81;;;7.22;62.95
70833;BME280;58452;59.418;17.962;2022-10-19T15:19:14;102211.66;;;7.32;62.81
70833;BME280;58452;59.418;17.962;2022-10-19T15:21:40;102205.69;;;7.16;62.98
70833;BME280;58452;59.418;17.962;2022-10-19T15:24:23;102207.78;;;7.25;63.13
70833;BME280;58452;59.418;17.962;2022-10-19T15:26:51;102208.69;;;7.24;63.61